Archival Weather

Biggin Hill

Biggin Hill, United Kingdom (EGKB)

Report from: Sunday, September 25, 2022 9:20 AM BST
Current time: Saturday, March 2, 2024 11:10 AM GMT

Current weather – Weather history – Daily summaries
Weather forecast

Temperature10.0°C (50.0°F)
Wind chill8.2°C (46.7°F)
Dew point8.0°C (46.4°F)
Winds 7 kts (3.6 m/s, 8.1 mph) Vrb
Winds variableWinds variable from West-Northwest (290°) to North (10°)
Visibility6.2 mi. (10 km)
Clouds Few clouds 700 ft. (213 m)
Altimeter30.12 in.Hg (1020 mB)
Relative humidity87 %
Density altitude-673 ft. (-205 m)
Flight conditions Visual Meteorological Conditions
Raw dataEGKB 250820Z 34007KT 290V010 9999 FEW007 10/08 Q1020
An error has occurred. This application may no longer respond until reloaded. Reload 🗙